Time;durP1;ratioP1;P1;durP2;ratioP2;P2;SDS_P1;SDS_P2;PMS_P1;PMS_P2;Temp;Humidity;BMP_temperature;BMP_pressure;BME280_temperature;BME280_humidity;BME280_pressure;Samples;Min_cycle;Max_cycle;Signal;HPM_P1;HPM_P2
2023/08/30 00:00:37;;;;;;;21.30;15.15;;;15.00;99.90;;;;;;5052151;28;20079;-75
2023/08/30 00:03:03;;;;;;;19.65;15.32;;;15.00;99.90;;;;;;5035656;28;20462;-74
2023/08/30 00:05:28;;;;;;;19.52;14.82;;;15.00;99.90;;;;;;5035779;28;20147;-75
2023/08/30 00:07:54;;;;;;;19.98;15.40;;;15.00;99.90;;;;;;5035346;28;20071;-74
2023/08/30 00:10:20;;;;;;;16.70;14.40;;;15.00;99.90;;;;;;5052137;28;20127;-74
2023/08/30 00:12:45;;;;;;;16.20;13.23;;;15.00;99.90;;;;;;5052066;28;20515;-75
2023/08/30 00:15:11;;;;;;;15.55;13.57;;;14.90;99.90;;;;;;5051984;28;20043;-74
2023/08/30 00:17:37;;;;;;;16.60;14.20;;;14.90;99.90;;;;;;5053113;28;20041;-74
2023/08/30 00:20:03;;;;;;;17.20;13.57;;;14.80;99.90;;;;;;5051744;28;20044;-74
2023/08/30 00:22:28;;;;;;;18.80;13.45;;;14.80;99.90;;;;;;5051410;28;20045;-74
2023/08/30 00:24:54;;;;;;;17.10;14.32;;;14.70;99.90;;;;;;5035023;28;20099;-74
2023/08/30 00:27:20;;;;;;;16.33;14.00;;;14.60;99.90;;;;;;5051618;28;20045;-74
2023/08/30 00:29:46;;;;;;;18.60;14.20;;;14.70;99.90;;;;;;5051871;28;20081;-74
2023/08/30 00:32:12;;;;;;;16.30;14.40;;;14.60;99.90;;;;;;5052898;28;20435;-74
2023/08/30 00:34:37;;;;;;;18.25;14.32;;;14.60;99.90;;;;;;5051607;28;20087;-74
2023/08/30 00:37:03;;;;;;;16.30;14.27;;;14.60;99.90;;;;;;5051388;28;20119;-74
2023/08/30 00:39:29;;;;;;;17.90;13.65;;;14.50;99.90;;;;;;5052887;28;20099;-74
2023/08/30 00:41:54;;;;;;;18.65;15.90;;;14.50;99.90;;;;;;5051807;28;20051;-74
2023/08/30 00:44:20;;;;;;;16.67;13.73;;;14.40;99.90;;;;;;5052839;28;20052;-74
2023/08/30 00:46:45;;;;;;;18.42;14.18;;;14.40;99.90;;;;;;5051297;28;20135;-75
2023/08/30 00:49:11;;;;;;;18.75;15.25;;;14.30;99.90;;;;;;5050990;28;20044;-74
2023/08/30 00:51:37;;;;;;;17.02;14.23;;;14.20;99.90;;;;;;5052369;28;20041;-74
2023/08/30 00:54:02;;;;;;;16.60;14.00;;;14.20;99.90;;;;;;5052719;28;20037;-75
2023/08/30 00:56:28;;;;;;;17.83;14.40;;;14.20;99.90;;;;;;5052432;28;20037;-74
2023/08/30 00:58:55;;;;;;;20.20;15.13;;;14.10;99.90;;;;;;5051217;28;20049;-75
2023/08/30 01:01:22;;;;;;;17.75;14.98;;;14.10;99.90;;;;;;5051251;28;20560;-74
2023/08/30 01:03:48;;;;;;;19.98;15.57;;;14.10;99.90;;;;;;5051095;28;20044;-74
2023/08/30 01:06:13;;;;;;;17.20;14.65;;;14.00;99.90;;;;;;5034585;28;20051;-75
2023/08/30 01:08:41;;;;;;;19.25;14.98;;;14.00;99.90;;;;;;5050773;28;20510;-74
2023/08/30 01:11:11;;;;;;;19.83;14.60;;;14.00;99.90;;;;;;5052177;28;20049;-74
2023/08/30 01:13:54;;;;;;;19.88;15.10;;;14.00;99.90;;;;;;5051002;28;20041;-74
2023/08/30 01:16:21;;;;;;;17.42;13.93;;;14.10;99.90;;;;;;5034778;28;20474;-74
2023/08/30 01:18:47;;;;;;;18.55;14.57;;;14.00;99.90;;;;;;5051813;28;20075;-74
2023/08/30 01:21:32;;;;;;;18.75;16.38;;;14.00;99.90;;;;;;5050872;28;20087;-74
2023/08/30 01:24:00;;;;;;;18.73;14.30;;;14.00;99.90;;;;;;5052236;28;20120;-74
2023/08/30 01:26:49;;;;;;;17.05;14.25;;;14.00;99.90;;;;;;5052026;28;20091;-75
2023/08/30 01:29:18;;;;;;;15.95;13.40;;;13.90;99.90;;;;;;5050555;28;20052;-74
2023/08/30 01:31:45;;;;;;;19.05;15.07;;;13.90;99.90;;;;;;5050525;28;20389;-74
2023/08/30 01:34:13;;;;;;;16.60;13.98;;;13.90;99.90;;;;;;5050436;28;20041;-75
2023/08/30 01:36:42;;;;;;;18.27;14.70;;;13.90;99.90;;;;;;5050504;28;20051;-74
2023/08/30 01:39:10;;;;;;;16.02;13.25;;;13.80;99.90;;;;;;5050398;28;20063;-74
2023/08/30 01:41:37;;;;;;;16.73;14.38;;;13.80;99.90;;;;;;5050519;28;20048;-74
2023/08/30 01:44:05;;;;;;;17.65;14.10;;;13.80;99.90;;;;;;5033877;28;20539;-74
2023/08/30 01:46:33;;;;;;;18.83;15.20;;;13.80;99.90;;;;;;5034010;28;20095;-75
2023/08/30 01:48:59;;;;;;;20.58;14.35;;;13.70;99.90;;;;;;5050454;28;20089;-74
2023/08/30 01:51:25;;;;;;;19.40;14.75;;;13.70;99.90;;;;;;5050491;28;20070;-74
2023/08/30 01:53:54;;;;;;;20.35;15.10;;;13.70;99.90;;;;;;5050326;28;20079;-75
2023/08/30 01:56:19;;;;;;;19.27;14.40;;;13.70;99.90;;;;;;5050500;28;20445;-75
2023/08/30 01:58:45;;;;;;;19.45;14.73;;;13.70;99.90;;;;;;5033482;28;20072;-75
2023/08/30 02:01:11;;;;;;;18.52;14.52;;;13.70;99.90;;;;;;5050240;28;20170;-74
2023/08/30 02:03:37;;;;;;;19.33;14.60;;;13.70;99.90;;;;;;5050227;28;20115;-75
2023/08/30 02:06:11;;;;;;;23.05;15.70;;;13.70;99.90;;;;;;5050251;28;20529;-74
2023/08/30 02:09:03;;;;;;;19.88;14.50;;;13.70;99.90;;;;;;5049833;28;20045;-74
2023/08/30 02:11:34;;;;;;;17.90;14.57;;;13.70;99.90;;;;;;5033743;28;20414;-75
2023/08/30 02:14:00;;;;;;;19.83;15.07;;;13.70;99.90;;;;;;5050216;28;20492;-75
2023/08/30 02:16:28;;;;;;;19.23;15.02;;;13.70;99.90;;;;;;5033621;28;20373;-74
2023/08/30 02:18:54;;;;;;;20.05;14.88;;;13.70;99.90;;;;;;5049821;28;20100;-74
2023/08/30 02:21:20;;;;;;;18.25;14.23;;;13.60;99.90;;;;;;5050301;28;20040;-74
2023/08/30 02:23:52;;;;;;;19.75;14.65;;;13.60;99.90;;;;;;5050058;28;20044;-74
2023/08/30 02:26:21;;;;;;;19.00;14.15;;;13.60;99.90;;;;;;5049991;28;20083;-75
2023/08/30 02:28:47;;;;;;;19.33;13.77;;;13.50;99.90;;;;;;5049999;28;20469;-74
2023/08/30 02:31:12;;;;;;;23.85;14.02;;;13.60;99.90;;;;;;5049891;28;20128;-75
2023/08/30 02:33:38;;;;;;;19.67;14.02;;;13.50;99.90;;;;;;5051166;28;20033;-74
2023/08/30 02:36:04;;;;;;;19.65;14.15;;;13.50;99.90;;;;;;5049902;28;20037;-75
2023/08/30 02:38:30;;;;;;;18.92;13.75;;;13.60;99.90;;;;;;5049666;28;20036;-75
2023/08/30 02:40:55;;;;;;;15.95;13.52;;;13.60;99.90;;;;;;5049832;28;20040;-74
2023/08/30 02:43:22;;;;;;;15.93;12.98;;;13.50;99.90;;;;;;5049901;28;20045;-74
2023/08/30 02:45:47;;;;;;;16.85;13.10;;;13.40;99.90;;;;;;5049779;28;20492;-74
2023/08/30 02:48:14;;;;;;;15.55;13.77;;;13.40;99.90;;;;;;5053525;28;20036;-74
2023/08/30 02:50:40;;;;;;;16.77;13.20;;;13.40;99.90;;;;;;5053413;28;20517;-74
2023/08/30 02:53:08;;;;;;;15.52;12.30;;;13.40;99.90;;;;;;5053631;28;20116;-74
2023/08/30 02:55:34;;;;;;;19.92;13.45;;;13.40;99.90;;;;;;5053605;28;20040;-74
2023/08/30 02:57:59;;;;;;;16.27;12.55;;;13.40;99.90;;;;;;5053466;28;20025;-74
2023/08/30 03:00:25;;;;;;;20.95;13.45;;;13.30;99.90;;;;;;5053311;28;20040;-74
2023/08/30 03:02:51;;;;;;;16.30;12.98;;;13.30;99.90;;;;;;5053376;28;20510;-75
2023/08/30 03:05:17;;;;;;;16.23;12.52;;;13.30;99.90;;;;;;5053395;28;20037;-74
2023/08/30 03:07:43;;;;;;;16.15;12.55;;;13.30;99.90;;;;;;5053172;28;20064;-74
2023/08/30 03:10:09;;;;;;;18.38;12.80;;;13.30;99.90;;;;;;5053190;28;20126;-74
2023/08/30 03:12:34;;;;;;;17.20;12.63;;;13.30;99.90;;;;;;5053138;28;20044;-75
2023/08/30 03:15:00;;;;;;;16.25;11.90;;;13.30;99.90;;;;;;5053171;28;20063;-74
2023/08/30 03:17:26;;;;;;;17.92;12.98;;;13.30;99.90;;;;;;5054633;28;20043;-74
2023/08/30 03:19:55;;;;;;;16.30;12.23;;;13.30;99.90;;;;;;5073010;28;20059;-74
2023/08/30 03:22:21;;;;;;;15.65;12.10;;;13.20;99.90;;;;;;5073086;28;20044;-75
2023/08/30 03:24:46;;;;;;;17.00;12.43;;;13.20;99.90;;;;;;5074318;28;20041;-74
2023/08/30 03:27:12;;;;;;;15.75;12.38;;;13.20;99.90;;;;;;5072805;28;20033;-74
2023/08/30 03:29:38;;;;;;;17.27;11.38;;;13.10;99.90;;;;;;5056081;28;20040;-75
2023/08/30 03:32:04;;;;;;;15.60;12.00;;;13.00;99.90;;;;;;5074010;28;20136;-74
2023/08/30 03:34:30;;;;;;;16.13;12.60;;;13.10;99.90;;;;;;5073056;28;20033;-73
2023/08/30 03:36:55;;;;;;;15.80;11.88;;;13.00;99.90;;;;;;5072622;28;20048;-74
2023/08/30 03:39:21;;;;;;;16.10;11.73;;;13.00;99.90;;;;;;5072541;28;20079;-74
2023/08/30 03:41:47;;;;;;;17.75;12.50;;;13.00;99.90;;;;;;5072728;28;20085;-75
2023/08/30 03:44:13;;;;;;;15.80;11.95;;;13.00;99.90;;;;;;5055948;28;20453;-74
2023/08/30 03:46:38;;;;;;;14.05;11.02;;;13.00;99.90;;;;;;5072716;28;20050;-74
2023/08/30 03:49:04;;;;;;;18.77;11.75;;;12.90;99.90;;;;;;5072245;28;20495;-74
2023/08/30 03:51:30;;;;;;;19.13;11.75;;;12.90;99.90;;;;;;5072497;28;20415;-75
2023/08/30 03:53:58;;;;;;;15.98;11.18;;;12.90;99.90;;;;;;5072485;28;20438;-75
2023/08/30 03:56:24;;;;;;;18.80;11.50;;;12.90;99.90;;;;;;5055500;28;20040;-74
2023/08/30 03:58:49;;;;;;;16.15;12.52;;;12.90;99.90;;;;;;5071953;28;20393;-74
2023/08/30 04:01:15;;;;;;;15.25;11.35;;;12.70;99.90;;;;;;5073579;28;20045;-74
2023/08/30 04:03:40;;;;;;;14.63;11.00;;;12.70;99.90;;;;;;5072402;28;20123;-74
2023/08/30 04:06:06;;;;;;;14.68;11.55;;;12.70;99.90;;;;;;5073461;28;20415;-74
2023/08/30 04:08:32;;;;;;;12.93;10.85;;;12.70;99.90;;;;;;5071914;28;20043;-74
2023/08/30 04:10:57;;;;;;;15.02;10.32;;;12.70;99.90;;;;;;5073441;28;20146;-74
2023/08/30 04:13:23;;;;;;;14.65;11.63;;;12.70;99.90;;;;;;5072102;28;20464;-74
2023/08/30 04:15:49;;;;;;;14.50;11.23;;;12.70;99.90;;;;;;5073206;28;20032;-74
2023/08/30 04:18:15;;;;;;;17.25;11.18;;;12.60;99.90;;;;;;5071899;28;20062;-74
2023/08/30 04:20:47;;;;;;;14.98;11.32;;;12.70;99.90;;;;;;5071787;28;20123;-74
2023/08/30 04:23:13;;;;;;;16.47;11.10;;;12.60;99.90;;;;;;5072128;28;20044;-74
2023/08/30 04:25:39;;;;;;;13.93;10.82;;;12.60;99.90;;;;;;5073169;28;20032;-74
2023/08/30 04:28:05;;;;;;;16.48;11.00;;;12.60;99.90;;;;;;5071603;28;20039;-74
2023/08/30 04:30:30;;;;;;;14.55;10.80;;;12.60;99.90;;;;;;5071777;28;20051;-74
2023/08/30 04:32:56;;;;;;;17.75;10.88;;;12.50;99.90;;;;;;5071736;28;20040;-74
2023/08/30 04:35:21;;;;;;;13.75;10.95;;;12.50;99.90;;;;;;5071712;28;20074;-74
2023/08/30 04:37:48;;;;;;;14.25;11.38;;;12.50;99.90;;;;;;5072764;28;20044;-74
2023/08/30 04:40:14;;;;;;;15.68;11.82;;;12.50;99.90;;;;;;5072683;28;20079;-74
2023/08/30 04:42:40;;;;;;;14.40;10.85;;;12.50;99.90;;;;;;5071304;28;20446;-74
2023/08/30 04:45:06;;;;;;;15.73;10.38;;;12.60;99.90;;;;;;5071169;28;20046;-74
2023/08/30 04:47:33;;;;;;;15.00;11.05;;;12.50;99.90;;;;;;5072489;28;20197;-74
2023/08/30 04:49:59;;;;;;;12.88;9.85;;;12.50;99.90;;;;;;5071254;28;20507;-74
2023/08/30 04:52:25;;;;;;;13.57;10.95;;;12.50;99.90;;;;;;5071382;28;20557;-74
2023/08/30 04:54:51;;;;;;;14.48;10.23;;;12.40;99.90;;;;;;5071100;28;20040;-74
2023/08/30 04:57:17;;;;;;;15.15;10.63;;;12.40;99.90;;;;;;5071068;28;20043;-75
2023/08/30 04:59:46;;;;;;;17.17;11.40;;;12.40;99.90;;;;;;5071019;28;20403;-74
2023/08/30 05:02:12;;;;;;;14.93;11.00;;;12.30;99.90;;;;;;5071143;28;20036;-74
2023/08/30 05:04:37;;;;;;;18.63;11.13;;;12.30;99.90;;;;;;5072542;28;20461;-74
2023/08/30 05:07:04;;;;;;;18.58;12.25;;;12.30;99.90;;;;;;5072203;28;20045;-74
2023/08/30 05:09:30;;;;;;;14.90;11.50;;;12.30;99.90;;;;;;5070349;28;20040;-75
2023/08/30 05:11:56;;;;;;;15.30;11.55;;;12.30;99.90;;;;;;5054241;28;20120;-74
2023/08/30 05:14:22;;;;;;;16.65;10.77;;;12.30;99.90;;;;;;5070934;28;20500;-74
2023/08/30 05:16:49;;;;;;;19.02;11.32;;;12.20;99.90;;;;;;5071022;28;20428;-74
2023/08/30 05:19:16;;;;;;;14.95;11.30;;;12.20;99.90;;;;;;5070109;28;20024;-75
2023/08/30 05:21:42;;;;;;;14.35;11.25;;;12.30;99.90;;;;;;5065314;28;20051;-75
2023/08/30 05:24:08;;;;;;;12.95;10.18;;;12.30;99.90;;;;;;5062574;28;20364;-75
2023/08/30 05:26:34;;;;;;;15.43;12.00;;;12.30;99.90;;;;;;5070259;28;20488;-73
2023/08/30 05:28:59;;;;;;;17.70;12.13;;;12.30;99.90;;;;;;5063423;28;20032;-72
2023/08/30 05:31:25;;;;;;;17.10;11.38;;;12.30;99.90;;;;;;5065866;28;20037;-73
2023/08/30 05:33:51;;;;;;;17.85;11.95;;;12.30;99.90;;;;;;5055848;28;20036;-73
2023/08/30 05:36:17;;;;;;;16.77;12.27;;;12.30;99.90;;;;;;5050551;28;20037;-73
2023/08/30 05:38:43;;;;;;;15.88;11.70;;;12.40;99.90;;;;;;5063071;28;20048;-73
2023/08/30 05:41:08;;;;;;;18.40;11.95;;;12.40;99.90;;;;;;5068419;28;20041;-73
2023/08/30 05:43:34;;;;;;;18.33;12.73;;;12.40;99.90;;;;;;5070750;28;20040;-73
2023/08/30 05:46:02;;;;;;;15.05;11.93;;;12.50;99.90;;;;;;5071862;28;20503;-73
2023/08/30 05:48:28;;;;;;;16.38;12.43;;;12.40;99.90;;;;;;5071439;28;20040;-73
2023/08/30 05:50:54;;;;;;;19.67;12.73;;;12.50;99.90;;;;;;5071569;28;20048;-73
2023/08/30 05:53:19;;;;;;;16.75;12.32;;;12.50;99.90;;;;;;5070446;28;20039;-73
2023/08/30 05:55:45;;;;;;;49.90;18.42;;;12.50;99.90;;;;;;5071530;28;20033;-74
2023/08/30 05:58:10;;;;;;;19.23;13.32;;;12.60;99.90;;;;;;5070069;28;20044;-74
2023/08/30 06:00:36;;;;;;;16.15;13.10;;;12.60;99.90;;;;;;5052807;28;20419;-73
2023/08/30 06:03:02;;;;;;;15.02;11.60;;;12.60;99.90;;;;;;5052798;28;20040;-74
2023/08/30 06:05:28;;;;;;;27.15;13.13;;;12.60;99.90;;;;;;5033479;28;20033;-72
2023/08/30 06:07:54;;;;;;;20.58;12.63;;;12.70;99.90;;;;;;5050317;28;20445;-75
2023/08/30 06:10:20;;;;;;;19.38;13.07;;;12.80;99.90;;;;;;5033619;28;20095;-72
2023/08/30 06:12:45;;;;;;;19.92;13.00;;;12.80;99.90;;;;;;5050088;28;20489;-72
2023/08/30 06:15:11;;;;;;;34.88;21.45;;;12.90;99.90;;;;;;5050378;28;20087;-72
2023/08/30 06:17:36;;;;;;;22.33;16.08;;;12.90;99.90;;;;;;5050181;28;20048;-74
2023/08/30 06:20:03;;;;;;;18.08;12.23;;;13.00;99.90;;;;;;5050215;28;20503;-73
2023/08/30 06:22:28;;;;;;;17.60;12.38;;;13.10;99.90;;;;;;5052966;28;20045;-73
2023/08/30 06:24:54;;;;;;;16.58;11.85;;;13.10;99.90;;;;;;5055289;28;20519;-73
2023/08/30 06:27:20;;;;;;;17.52;11.90;;;13.20;99.90;;;;;;5054087;28;20070;-74
2023/08/30 06:29:45;;;;;;;17.90;11.73;;;13.30;99.90;;;;;;5054002;28;20128;-74
2023/08/30 06:32:11;;;;;;;16.73;11.98;;;13.30;99.90;;;;;;5053941;28;20127;-73
2023/08/30 06:34:37;;;;;;;17.92;12.55;;;13.50;99.90;;;;;;5053930;28;20120;-74
2023/08/30 06:37:03;;;;;;;17.15;12.30;;;13.50;99.90;;;;;;5058793;28;20035;-74
2023/08/30 06:39:36;;;;;;;27.92;18.27;;;13.60;99.90;;;;;;5065493;28;20083;-75
2023/08/30 06:42:02;;;;;;;25.30;16.80;;;13.70;99.90;;;;;;5075359;28;20048;-75
2023/08/30 06:44:29;;;;;;;16.10;11.93;;;13.80;99.90;;;;;;5075229;28;20082;-73
2023/08/30 06:46:55;;;;;;;16.52;10.98;;;14.00;99.90;;;;;;5056967;28;20048;-75
2023/08/30 06:49:21;;;;;;;16.30;10.70;;;14.10;99.90;;;;;;5074723;28;20048;-73
2023/08/30 06:51:47;;;;;;;97.40;18.90;;;14.20;99.90;;;;;;5073420;28;20040;-73
2023/08/30 06:54:12;;;;;;;15.05;10.35;;;14.30;99.90;;;;;;5074792;28;20060;-74
2023/08/30 06:56:38;;;;;;;41.97;16.00;;;14.30;99.90;;;;;;5056980;28;20040;-73
2023/08/30 06:59:03;;;;;;;43.47;14.98;;;14.50;99.90;;;;;;5073527;28;20051;-74
2023/08/30 07:01:29;;;;;;;16.08;10.23;;;14.50;99.90;;;;;;5074757;28;20119;-74
2023/08/30 07:03:55;;;;;;;18.40;12.02;;;14.60;99.90;;;;;;5074769;28;20059;-74
2023/08/30 07:06:20;;;;;;;15.23;10.38;;;14.60;99.90;;;;;;5074495;28;20079;-74
2023/08/30 07:08:46;;;;;;;14.75;10.10;;;14.70;99.90;;;;;;5074294;28;20033;-74
2023/08/30 07:11:11;;;;;;;13.75;9.18;;;14.70;99.90;;;;;;5073193;28;20040;-73
2023/08/30 07:13:37;;;;;;;13.98;9.50;;;14.70;99.90;;;;;;5073460;28;20453;-74
2023/08/30 07:16:03;;;;;;;15.18;9.50;;;14.70;99.90;;;;;;5074486;28;20036;-74
2023/08/30 07:18:29;;;;;;;16.17;10.45;;;14.80;99.90;;;;;;5070890;28;20029;-74
2023/08/30 07:20:54;;;;;;;1999.90;462.88;;;14.90;99.90;;;;;;5053039;28;20562;-73
2023/08/30 07:23:20;;;;;;;328.40;55.22;;;15.00;99.90;;;;;;5060700;28;20051;-74
2023/08/30 07:25:46;;;;;;;122.18;26.58;;;15.00;99.90;;;;;;5063038;28;20044;-74
2023/08/30 07:28:11;;;;;;;22.92;10.93;;;15.10;99.90;;;;;;5061378;28;20032;-74
2023/08/30 07:30:37;;;;;;;17.25;10.70;;;15.10;99.90;;;;;;5061115;28;20039;-73
2023/08/30 07:33:04;;;;;;;15.07;9.15;;;15.20;99.90;;;;;;5061997;28;20032;-73
2023/08/30 07:35:30;;;;;;;16.48;9.73;;;15.20;99.90;;;;;;5042725;28;20040;-73
2023/08/30 07:37:56;;;;;;;17.17;10.32;;;15.10;99.90;;;;;;5067932;28;20487;-73
2023/08/30 07:40:26;;;;;;;15.13;9.70;;;15.10;99.90;;;;;;5073395;28;20032;-73
2023/08/30 07:42:52;;;;;;;15.40;9.85;;;15.10;99.90;;;;;;5045819;28;20032;-73
2023/08/30 07:45:17;;;;;;;16.08;10.52;;;15.10;99.90;;;;;;5073509;28;20101;-74
2023/08/30 07:47:43;;;;;;;16.38;10.32;;;15.10;99.90;;;;;;5055990;28;20503;-74
2023/08/30 07:50:08;;;;;;;16.27;10.88;;;15.20;99.90;;;;;;5072406;28;20393;-73
2023/08/30 07:52:34;;;;;;;16.55;10.77;;;15.20;99.90;;;;;;5072342;28;20040;-72
2023/08/30 07:55:00;;;;;;;31.52;20.92;;;15.20;99.90;;;;;;5072437;28;20514;-72
2023/08/30 07:57:25;;;;;;;17.50;11.88;;;15.30;99.90;;;;;;5072152;28;20040;-72
2023/08/30 07:59:51;;;;;;;16.60;10.52;;;15.30;99.90;;;;;;5072331;28;20110;-73
2023/08/30 08:02:17;;;;;;;16.27;10.40;;;15.40;99.90;;;;;;5072341;28;20119;-73
2023/08/30 08:04:42;;;;;;;12.48;8.38;;;15.50;99.90;;;;;;5073630;28;20124;-72
2023/08/30 08:07:08;;;;;;;16.63;10.02;;;15.50;99.90;;;;;;5073210;28;20079;-72
2023/08/30 08:09:34;;;;;;;13.98;10.20;;;15.60;99.90;;;;;;5072096;28;20475;-73
2023/08/30 08:11:59;;;;;;;12.48;8.93;;;15.60;99.90;;;;;;5055537;28;20435;-73
2023/08/30 08:14:25;;;;;;;15.25;9.57;;;15.60;99.90;;;;;;5072182;28;20119;-72
2023/08/30 08:16:51;;;;;;;14.98;9.43;;;15.60;99.90;;;;;;5067050;28;20410;-73
2023/08/30 08:19:16;;;;;;;18.70;11.10;;;15.70;99.90;;;;;;5071680;28;20120;-73
2023/08/30 08:21:42;;;;;;;17.10;9.43;;;15.70;99.90;;;;;;5073498;28;20066;-73
2023/08/30 08:24:08;;;;;;;15.10;9.73;;;15.70;99.90;;;;;;5072108;28;20078;-73
2023/08/30 08:26:33;;;;;;;12.40;9.18;;;15.70;99.90;;;;;;5073228;28;20067;-72
2023/08/30 08:28:59;;;;;;;13.63;9.63;;;15.90;99.90;;;;;;5071554;28;20499;-74
2023/08/30 08:31:24;;;;;;;13.80;9.15;;;15.90;99.90;;;;;;5071907;28;20036;-73
2023/08/30 08:34:04;;;;;;;13.00;9.50;;;15.90;99.90;;;;;;5056660;28;20554;-73
2023/08/30 08:36:30;;;;;;;22.45;9.93;;;15.90;99.90;;;;;;5034673;28;20055;-73
2023/08/30 08:38:55;;;;;;;17.10;9.32;;;16.00;99.90;;;;;;5051376;28;20119;-73
2023/08/30 08:41:25;;;;;;;17.27;9.50;;;16.00;99.90;;;;;;5052964;28;20047;-73
2023/08/30 08:43:51;;;;;;;14.10;9.70;;;16.00;99.90;;;;;;5050798;28;20052;-72
2023/08/30 08:46:19;;;;;;;14.07;9.48;;;16.00;99.90;;;;;;5052592;28;20037;-73
2023/08/30 08:48:46;;;;;;;16.77;9.68;;;16.00;99.90;;;;;;5051016;28;20045;-73
2023/08/30 08:51:12;;;;;;;13.73;9.25;;;16.00;99.90;;;;;;5051291;28;20560;-73
2023/08/30 08:53:37;;;;;;;14.00;9.95;;;16.10;99.90;;;;;;5051679;28;20076;-73
2023/08/30 08:56:05;;;;;;;15.75;9.88;;;16.20;99.90;;;;;;5052647;28;20075;-73
2023/08/30 08:58:32;;;;;;;15.98;9.52;;;16.30;99.90;;;;;;5056278;28;20059;-72
2023/08/30 09:00:58;;;;;;;15.98;10.70;;;16.30;99.90;;;;;;5060621;28;20515;-72
2023/08/30 09:03:24;;;;;;;15.02;10.05;;;16.40;99.90;;;;;;5072322;28;20040;-72
2023/08/30 09:05:51;;;;;;;17.13;10.13;;;16.50;99.90;;;;;;5071309;28;20169;-72
2023/08/30 09:08:16;;;;;;;14.05;9.73;;;16.60;99.90;;;;;;5072264;28;20047;-72
2023/08/30 09:10:42;;;;;;;16.92;10.57;;;16.60;99.90;;;;;;5072190;28;20048;-74
2023/08/30 09:13:08;;;;;;;15.27;9.35;;;16.70;99.90;;;;;;5072228;28;20036;-73
2023/08/30 09:15:34;;;;;;;13.88;8.52;;;16.70;99.90;;;;;;5054218;28;20036;-73
2023/08/30 09:18:00;;;;;;;15.63;10.35;;;16.70;99.90;;;;;;5072053;28;20086;-73
2023/08/30 09:20:26;;;;;;;19.75;9.90;;;16.80;99.90;;;;;;5070698;28;20048;-73
2023/08/30 09:22:52;;;;;;;16.88;9.52;;;16.70;99.90;;;;;;5065361;28;20043;-73
2023/08/30 09:25:25;;;;;;;14.23;8.98;;;16.60;99.90;;;;;;5068799;28;20051;-73
2023/08/30 09:27:56;;;;;;;11.60;8.18;;;16.60;99.90;;;;;;5066635;28;20079;-72
2023/08/30 09:30:22;;;;;;;13.02;8.05;;;16.60;99.90;;;;;;5070362;28;20048;-73
2023/08/30 09:32:48;;;;;;;12.40;7.93;;;16.50;99.90;;;;;;5070586;28;20051;-72
2023/08/30 09:35:13;;;;;;;12.02;8.20;;;16.40;99.90;;;;;;5064847;28;20111;-71
2023/08/30 09:37:39;;;;;;;14.10;8.55;;;16.40;99.90;;;;;;5054764;28;20036;-73
2023/08/30 09:40:07;;;;;;;14.50;8.10;;;16.40;99.90;;;;;;5070252;28;20380;-73
2023/08/30 09:42:33;;;;;;;13.88;9.45;;;16.40;99.90;;;;;;5070681;28;20044;-74
2023/08/30 09:44:58;;;;;;;17.40;8.07;;;16.30;99.90;;;;;;5070409;28;20614;-72
2023/08/30 09:47:26;;;;;;;13.82;8.20;;;16.20;99.90;;;;;;5071741;28;20033;-73
2023/08/30 09:49:55;;;;;;;13.25;7.95;;;16.30;99.90;;;;;;5070071;28;20557;-73
2023/08/30 09:52:23;;;;;;;12.93;7.63;;;16.20;99.90;;;;;;5071602;28;20530;-72
2023/08/30 09:54:50;;;;;;;12.02;7.88;;;16.10;99.90;;;;;;5071660;28;20074;-73
2023/08/30 09:57:16;;;;;;;13.30;8.57;;;16.00;99.90;;;;;;5071042;28;20036;-73
2023/08/30 09:59:42;;;;;;;12.10;7.45;;;16.00;99.90;;;;;;5053448;28;20039;-73
2023/08/30 10:02:09;;;;;;;13.50;8.27;;;15.90;99.90;;;;;;5064163;28;20065;-74
2023/08/30 10:04:39;;;;;;;13.10;7.90;;;15.80;99.90;;;;;;5060854;28;20089;-74
2023/08/30 10:07:06;;;;;;;12.80;7.75;;;15.50;99.90;;;;;;5043288;28;20127;-73
2023/08/30 10:09:33;;;;;;;15.07;8.40;;;15.50;99.90;;;;;;5058228;28;20116;-74
2023/08/30 10:12:01;;;;;;;17.40;8.70;;;15.40;99.90;;;;;;5050007;28;20041;-74
2023/08/30 10:14:27;;;;;;;18.52;9.10;;;15.30;99.90;;;;;;5050219;28;20033;-74
2023/08/30 10:17:02;;;;;;;14.40;8.30;;;15.30;99.90;;;;;;5059093;28;20072;-74
2023/08/30 10:19:28;;;;;;;14.25;8.55;;;15.20;99.90;;;;;;5057012;28;20090;-74
2023/08/30 10:22:05;;;;;;;14.30;8.90;;;15.20;99.90;;;;;;5051412;28;20037;-73
2023/08/30 10:24:37;;;;;;;16.95;9.13;;;15.30;99.90;;;;;;5050420;28;20049;-74
2023/08/30 10:27:06;;;;;;;14.57;9.13;;;15.30;99.90;;;;;;5050234;28;20045;-73
2023/08/30 10:29:34;;;;;;;15.07;9.80;;;15.30;99.90;;;;;;5051286;28;20121;-73
2023/08/30 10:32:07;;;;;;;14.32;8.57;;;15.50;99.90;;;;;;5051245;28;20048;-73
2023/08/30 10:34:36;;;;;;;14.23;9.40;;;15.80;99.90;;;;;;5049783;28;20040;-73
2023/08/30 10:37:07;;;;;;;14.02;9.43;;;16.10;99.90;;;;;;5050994;28;20033;-73
2023/08/30 10:39:35;;;;;;;15.93;9.63;;;16.20;99.90;;;;;;5051265;28;20171;-73
2023/08/30 10:42:07;;;;;;;13.20;8.68;;;16.30;99.90;;;;;;5051179;28;20416;-73
2023/08/30 10:44:33;;;;;;;15.88;9.43;;;16.40;99.90;;;;;;5058869;28;20106;-73
2023/08/30 10:47:02;;;;;;;11.70;7.20;;;16.60;99.90;;;;;;5055173;28;20564;-73
2023/08/30 10:49:27;;;;;;;11.18;6.85;;;16.50;99.90;;;;;;5050748;28;20037;-73
2023/08/30 10:51:57;;;;;;;6.82;4.88;;;16.60;99.90;;;;;;5051184;28;20041;-73
2023/08/30 10:54:23;;;;;;;8.38;4.72;;;16.60;99.90;;;;;;5051211;28;20037;-73
2023/08/30 10:56:52;;;;;;;7.25;4.32;;;16.70;99.90;;;;;;5073889;22;20039;-70
2023/08/30 10:59:22;;;;;;;8.15;5.05;;;16.70;99.90;;;;;;5048096;28;20041;-69
2023/08/30 11:01:50;;;;;;;6.03;4.63;;;16.70;99.90;;;;;;5032928;28;20045;-70
2023/08/30 11:04:17;;;;;;;7.88;5.80;;;16.60;99.90;;;;;;5051086;28;20037;-71
2023/08/30 11:06:51;;;;;;;10.70;6.97;;;16.70;99.90;;;;;;5050014;28;20539;-69
2023/08/30 11:09:23;;;;;;;12.95;8.25;;;16.70;99.90;;;;;;5054328;28;20555;-70
2023/08/30 11:11:49;;;;;;;10.20;7.38;;;16.80;99.90;;;;;;5054748;28;20116;-69
2023/08/30 11:14:16;;;;;;;11.02;8.30;;;16.80;99.90;;;;;;5069593;28;20041;-68
2023/08/30 11:16:42;;;;;;;10.30;7.28;;;16.80;99.90;;;;;;5052696;28;20120;-70
2023/08/30 11:19:09;;;;;;;10.02;7.55;;;16.80;99.90;;;;;;5069297;28;20064;-69
2023/08/30 11:21:40;;;;;;;9.88;6.22;;;16.70;99.90;;;;;;5054038;28;20071;-69
2023/08/30 11:24:09;;;;;;;9.68;5.80;;;16.70;99.90;;;;;;5050020;28;20041;-69
2023/08/30 11:26:35;;;;;;;8.05;4.97;;;16.70;99.90;;;;;;5052231;28;20443;-69
2023/08/30 11:29:08;;;;;;;7.75;5.30;;;16.80;99.90;;;;;;5032795;28;20045;-69
2023/08/30 11:31:34;;;;;;;7.78;5.75;;;16.90;99.90;;;;;;5033276;28;20076;-70
2023/08/30 11:34:00;;;;;;;12.85;6.57;;;16.90;99.90;;;;;;5033328;28;20045;-70
2023/08/30 11:36:29;;;;;;;22.73;6.90;;;16.90;99.90;;;;;;5033416;28;20124;-70
2023/08/30 11:38:55;;;;;;;11.10;5.78;;;17.00;99.90;;;;;;5032936;28;20037;-70
2023/08/30 11:41:23;;;;;;;8.35;5.93;;;16.90;99.90;;;;;;5034908;28;20045;-69
2023/08/30 11:43:49;;;;;;;7.78;5.25;;;17.00;99.90;;;;;;5035162;28;20049;-69
2023/08/30 11:46:16;;;;;;;9.18;5.68;;;17.00;99.90;;;;;;5035988;28;20703;-69
2023/08/30 11:48:43;;;;;;;10.25;6.60;;;16.90;99.90;;;;;;5035663;28;20041;-70
2023/08/30 11:51:10;;;;;;;8.98;6.65;;;16.90;99.90;;;;;;5034270;28;20116;-69
2023/08/30 11:53:37;;;;;;;11.82;7.07;;;16.80;99.90;;;;;;5017972;28;20501;-69
2023/08/30 11:56:07;;;;;;;11.45;7.70;;;16.80;99.90;;;;;;5033895;28;20529;-69
2023/08/30 11:58:34;;;;;;;12.40;8.90;;;16.60;99.90;;;;;;5034838;28;20038;-70
2023/08/30 12:01:03;;;;;;;13.23;9.13;;;16.50;99.90;;;;;;5033662;28;20497;-69
2023/08/30 12:03:30;;;;;;;11.70;8.88;;;16.40;99.90;;;;;;5034624;28;20041;-69
2023/08/30 12:05:56;;;;;;;15.70;9.02;;;16.30;99.90;;;;;;5033399;28;20033;-69
2023/08/30 12:08:30;;;;;;;13.40;10.48;;;16.20;99.90;;;;;;5016838;28;20382;-68
2023/08/30 12:10:57;;;;;;;12.68;9.10;;;16.00;99.90;;;;;;5033357;28;20129;-68
2023/08/30 12:13:28;;;;;;;14.77;10.90;;;15.90;99.90;;;;;;5033659;28;20472;-71
2023/08/30 12:15:55;;;;;;;12.95;10.43;;;15.80;99.90;;;;;;5034397;28;20106;-69
2023/08/30 12:18:23;;;;;;;14.27;10.25;;;15.70;99.90;;;;;;5046283;28;20557;-69
2023/08/30 12:21:03;;;;;;;16.65;10.70;;;15.60;99.90;;;;;;5034862;28;20105;-70
2023/08/30 12:23:31;;;;;;;13.15;9.45;;;15.70;99.90;;;;;;5053508;28;20052;-68
2023/08/30 12:26:04;;;;;;;13.43;8.82;;;15.60;99.90;;;;;;5051948;28;20037;-69
2023/08/30 12:28:31;;;;;;;13.48;8.25;;;15.50;99.90;;;;;;5053471;28;20500;-69